createdAt,value
2017-07-21T00:00:39.243Z,0
2017-07-21T00:01:49.514Z,0
2017-07-21T00:02:59.805Z,0
2017-07-21T00:04:10.082Z,0
2017-07-21T00:05:20.622Z,0
2017-07-21T00:06:30.297Z,0
2017-07-21T00:07:40.274Z,0
2017-07-21T00:08:50.553Z,0
2017-07-21T00:10:00.824Z,0
2017-07-21T00:11:10.736Z,0
2017-07-21T00:12:21.008Z,0
2017-07-21T00:13:31.293Z,0
2017-07-21T00:14:41.260Z,0
2017-07-21T00:15:50.932Z,0
2017-07-21T00:17:01.162Z,0
2017-07-21T00:18:11.479Z,0
2017-07-21T00:19:21.468Z,0
2017-07-21T00:20:31.771Z,0
2017-07-21T00:21:41.757Z,0
2017-07-21T00:22:52.300Z,0
2017-07-21T00:24:02.589Z,0
2017-07-21T00:25:12.858Z,0
2017-07-21T00:26:23.130Z,0
2017-07-21T00:27:33.105Z,0
2017-07-21T00:28:43.654Z,0
2017-07-21T00:29:53.931Z,0
2017-07-21T00:31:04.214Z,0
2017-07-21T00:32:14.169Z,0
2017-07-21T00:33:24.154Z,0
2017-07-21T00:34:34.680Z,0
2017-07-21T00:35:44.952Z,0
2017-07-21T00:36:54.620Z,0
2017-07-21T00:38:04.894Z,0
2017-07-21T00:39:14.869Z,0
2017-07-21T00:40:25.392Z,0
2017-07-21T00:41:35.364Z,0
2017-07-21T00:42:45.653Z,0
2017-07-21T00:43:55.933Z,0
2017-07-21T00:45:05.914Z,0
2017-07-21T00:46:16.125Z,0
2017-07-21T00:47:26.421Z,0
2017-07-21T00:48:36.389Z,0
2017-07-21T00:49:46.348Z,0
2017-07-21T00:50:56.314Z,0
2017-07-21T00:52:06.825Z,0
2017-07-21T00:53:16.805Z,0
2017-07-21T00:54:27.077Z,0
2017-07-21T00:55:37.369Z,0
2017-07-21T00:56:47.350Z,0
2017-07-21T00:57:57.876Z,0
2017-07-21T00:59:08.272Z,0
2017-07-21T01:00:18.572Z,0
2017-07-21T01:01:28.855Z,0
2017-07-21T01:02:39.143Z,0
2017-07-21T01:03:49.369Z,0
2017-07-21T01:04:59.691Z,0
2017-07-21T01:06:09.965Z,0
2017-07-21T01:07:20.245Z,0
2017-07-21T01:08:30.536Z,0
2017-07-21T01:09:41.082Z,0
2017-07-21T01:10:51.065Z,0
2017-07-21T01:12:01.032Z,0
2017-07-21T01:13:11.314Z,0
2017-07-21T01:14:21.606Z,0
2017-07-21T01:15:32.127Z,0
2017-07-21T01:16:42.407Z,0
2017-07-21T01:17:52.678Z,0
2017-07-21T01:19:02.964Z,0
2017-07-21T01:20:13.229Z,0
2017-07-21T01:21:23.142Z,0
2017-07-21T01:22:33.105Z,0
2017-07-21T01:23:43.375Z,0
2017-07-21T01:24:53.348Z,0
2017-07-21T01:26:03.618Z,0
2017-07-21T01:27:14.187Z,0
2017-07-21T01:28:24.459Z,0
2017-07-21T01:29:34.730Z,0
2017-07-21T01:30:44.711Z,0
2017-07-21T01:31:54.994Z,0
2017-07-21T01:33:05.535Z,0
2017-07-21T01:34:15.810Z,0
2017-07-21T01:35:25.780Z,0
2017-07-21T01:36:36.042Z,0
2017-07-21T01:37:46.314Z,0
2017-07-21T01:38:56.521Z,0
2017-07-21T01:40:06.808Z,0
2017-07-21T01:41:16.782Z,0
2017-07-21T01:42:26.749Z,0
2017-07-21T01:43:36.716Z,0
2017-07-21T01:44:46.922Z,0
2017-07-21T01:45:57.192Z,0
2017-07-21T01:47:07.475Z,0
2017-07-21T01:48:17.750Z,0
2017-07-21T01:49:27.721Z,0
2017-07-21T01:50:37.960Z,0
2017-07-21T01:51:48.236Z,0
2017-07-21T01:52:58.197Z,0
2017-07-21T01:54:08.164Z,0
2017-07-21T01:55:17.832Z,0
2017-07-21T01:56:28.384Z,0
2017-07-21T01:57:38.664Z,0
2017-07-21T01:58:48.623Z,0
2017-07-21T01:59:57.968Z,0
2017-07-21T02:01:07.938Z,0
2017-07-21T02:02:18.458Z,0
2017-07-21T02:03:28.740Z,0
2017-07-21T02:04:38.713Z,0
2017-07-21T02:05:48.985Z,0
2017-07-21T02:06:58.939Z,0
2017-07-21T02:08:09.159Z,0
2017-07-21T02:09:19.441Z,0
2017-07-21T02:10:29.722Z,0
2017-07-21T02:11:39.704Z,0
2017-07-21T02:12:49.989Z,0
2017-07-21T02:14:00.196Z,0
2017-07-21T02:15:10.473Z,0
2017-07-21T02:16:20.449Z,0
2017-07-21T02:17:30.741Z,0
2017-07-21T02:18:41.007Z,0
2017-07-21T02:19:51.218Z,0
2017-07-21T02:21:01.188Z,0
2017-07-21T02:22:11.476Z,0
2017-07-21T02:23:21.132Z,0
2017-07-21T02:24:31.096Z,0
2017-07-21T02:25:41.323Z,0
2017-07-21T02:26:51.585Z,0
2017-07-21T02:28:01.255Z,0
2017-07-21T02:29:11.529Z,0
2017-07-21T02:30:21.509Z,0
2017-07-21T02:31:31.776Z,0
2017-07-21T02:32:41.426Z,0
2017-07-21T02:33:50.779Z,0
2017-07-21T02:35:00.740Z,0
2017-07-21T02:36:10.713Z,0
2017-07-21T02:37:20.631Z,0
2017-07-21T02:38:30.611Z,0
2017-07-21T02:39:40.573Z,0
2017-07-21T02:40:50.892Z,0
2017-07-21T02:42:00.869Z,0
2017-07-21T02:43:11.396Z,0
2017-07-21T02:44:21.657Z,0
2017-07-21T02:45:31.923Z,0
2017-07-21T02:46:42.208Z,0
2017-07-21T02:47:52.179Z,0
2017-07-21T02:49:02.694Z,0
2017-07-21T02:50:12.976Z,0
2017-07-21T02:51:22.947Z,0
2017-07-21T02:52:32.612Z,0
2017-07-21T02:53:42.588Z,0
2017-07-21T02:54:52.493Z,0
2017-07-21T02:56:02.788Z,0
2017-07-21T02:57:13.067Z,0
2017-07-21T02:58:23.047Z,0
2017-07-21T02:59:32.705Z,0
2017-07-21T03:00:42.627Z,5
2017-07-21T03:01:52.902Z,5
2017-07-21T03:03:02.550Z,5
2017-07-21T03:04:12.518Z,5
2017-07-21T03:05:22.790Z,5
2017-07-21T03:06:33.002Z,5
2017-07-21T03:07:43.275Z,5
2017-07-21T03:08:53.550Z,10
2017-07-21T03:10:03.822Z,10
2017-07-21T03:11:13.785Z,10
2017-07-21T03:12:23.996Z,10
2017-07-21T03:13:33.965Z,10
2017-07-21T03:14:44.221Z,15
2017-07-21T03:15:54.530Z,15
2017-07-21T03:17:04.194Z,15
2017-07-21T03:18:14.733Z,15
2017-07-21T03:19:25.029Z,20
2017-07-21T03:20:35.305Z,20
2017-07-21T03:21:45.594Z,20
2017-07-21T03:22:55.794Z,20
2017-07-21T03:24:06.302Z,25
2017-07-21T03:25:16.268Z,25
2017-07-21T03:26:26.220Z,25
2017-07-21T03:27:35.875Z,25
2017-07-21T03:28:46.146Z,25
2017-07-21T03:29:56.672Z,25
2017-07-21T03:31:06.581Z,25
2017-07-21T03:32:16.562Z,30
2017-07-21T03:33:26.836Z,30
2017-07-21T03:34:37.117Z,30
2017-07-21T03:35:47.657Z,30
2017-07-21T03:36:57.953Z,35
2017-07-21T03:38:08.221Z,35
2017-07-21T03:39:18.503Z,35
2017-07-21T03:40:28.783Z,35
2017-07-21T03:41:39.306Z,40
2017-07-21T03:42:49.286Z,40
2017-07-21T03:43:59.567Z,45
2017-07-21T03:45:09.850Z,45
2017-07-21T03:46:19.831Z,50
2017-07-21T03:47:30.053Z,55
2017-07-21T03:48:40.338Z,60
2017-07-21T03:49:50.294Z,60
2017-07-21T03:51:00.253Z,65
2017-07-21T03:52:10.213Z,65
2017-07-21T03:53:20.429Z,70
2017-07-21T03:54:30.712Z,70
2017-07-21T03:55:40.371Z,75
2017-07-21T03:56:50.663Z,75
2017-07-21T03:58:00.630Z,75
2017-07-21T03:59:11.163Z,75
2017-07-21T04:00:21.435Z,80
2017-07-21T04:01:31.094Z,80
2017-07-21T04:02:41.376Z,80
2017-07-21T04:03:51.665Z,80
2017-07-21T04:05:01.895Z,85
2017-07-21T04:06:11.563Z,85
2017-07-21T04:07:21.533Z,85
2017-07-21T04:08:32.040Z,85
2017-07-21T04:09:41.998Z,90
2017-07-21T04:10:52.545Z,90
2017-07-21T04:12:02.820Z,90
2017-07-21T04:13:13.097Z,95
2017-07-21T04:14:23.370Z,95
2017-07-21T04:15:33.023Z,100
2017-07-21T04:16:43.264Z,100
2017-07-21T04:17:53.535Z,105
2017-07-21T04:19:03.833Z,105
2017-07-21T04:20:14.121Z,110
2017-07-21T04:21:24.629Z,110
2017-07-21T04:22:34.846Z,115
2017-07-21T04:23:45.127Z,115
2017-07-21T04:24:55.103Z,120
2017-07-21T04:26:05.387Z,120
2017-07-21T04:27:15.663Z,125
2017-07-21T04:28:25.897Z,125
2017-07-21T04:29:35.882Z,130
2017-07-21T04:30:46.157Z,130
2017-07-21T04:31:56.482Z,135
2017-07-21T04:33:06.452Z,135
2017-07-21T04:34:16.992Z,140
2017-07-21T04:35:27.285Z,145
2017-07-21T04:36:37.576Z,145
2017-07-21T04:37:47.553Z,150
2017-07-21T04:38:57.828Z,155
2017-07-21T04:40:08.357Z,155
2017-07-21T04:41:18.649Z,160
2017-07-21T04:42:27.990Z,160
2017-07-21T04:43:38.272Z,160
2017-07-21T04:44:48.546Z,160
2017-07-21T04:45:59.063Z,165
2017-07-21T04:47:09.353Z,165
2017-07-21T04:48:19.005Z,170
2017-07-21T04:49:28.954Z,170
2017-07-21T04:50:39.234Z,175
2017-07-21T04:51:49.778Z,175
2017-07-21T04:52:59.737Z,175
2017-07-21T04:54:09.401Z,175
2017-07-21T04:55:19.677Z,175
2017-07-21T04:56:29.953Z,180
2017-07-21T04:57:40.168Z,180
2017-07-21T04:58:50.441Z,180
2017-07-21T05:00:00.423Z,180
2017-07-21T05:01:10.710Z,185
2017-07-21T05:02:20.995Z,190
2017-07-21T05:03:31.221Z,190
2017-07-21T05:04:41.186Z,195
2017-07-21T05:05:51.455Z,200
2017-07-21T05:07:01.735Z,205
2017-07-21T05:08:12.003Z,205
2017-07-21T05:09:22.591Z,210
2017-07-21T05:10:32.849Z,210
2017-07-21T05:11:43.167Z,210
2017-07-21T05:12:53.440Z,215
2017-07-21T05:14:03.721Z,215
2017-07-21T05:15:14.263Z,220
2017-07-21T05:16:24.557Z,220
2017-07-21T05:17:34.827Z,230
2017-07-21T05:18:45.113Z,230
2017-07-21T05:19:55.067Z,230
2017-07-21T05:21:05.288Z,235
2017-07-21T05:22:15.262Z,230
2017-07-21T05:23:25.230Z,240
2017-07-21T05:24:35.202Z,230
2017-07-21T05:25:45.488Z,225
2017-07-21T05:26:56.014Z,230
2017-07-21T05:28:06.290Z,235
2017-07-21T05:29:16.586Z,240
2017-07-21T05:30:26.274Z,245
2017-07-21T05:31:36.545Z,250
2017-07-21T05:32:47.092Z,250
2017-07-21T05:33:57.393Z,250
2017-07-21T05:35:07.713Z,250
2017-07-21T05:36:17.997Z,245
2017-07-21T05:37:27.965Z,250
2017-07-21T05:38:38.486Z,250
2017-07-21T05:39:48.776Z,255
2017-07-21T05:40:59.043Z,260
2017-07-21T05:42:09.314Z,265
2017-07-21T05:43:19.269Z,270
2017-07-21T05:44:29.793Z,270
2017-07-21T05:45:40.082Z,275
2017-07-21T05:46:50.358Z,275
2017-07-21T05:48:00.635Z,275
2017-07-21T05:49:10.911Z,275
2017-07-21T05:50:21.444Z,275
2017-07-21T05:51:31.410Z,280
2017-07-21T05:52:41.701Z,280
2017-07-21T05:53:51.991Z,280
2017-07-21T05:55:01.945Z,285
2017-07-21T05:56:12.470Z,285
2017-07-21T05:57:22.440Z,285
2017-07-21T05:58:32.728Z,290
2017-07-21T05:59:42.716Z,290
2017-07-21T06:00:53.004Z,295
2017-07-21T06:02:03.536Z,295
2017-07-21T06:03:13.811Z,300
2017-07-21T06:04:23.768Z,300
2017-07-21T06:05:33.728Z,300
2017-07-21T06:06:44.008Z,305
2017-07-21T06:07:54.539Z,305
2017-07-21T06:09:04.805Z,305
2017-07-21T06:10:15.123Z,305
2017-07-21T06:11:25.085Z,310
2017-07-21T06:12:35.362Z,310
2017-07-21T06:13:45.884Z,310
2017-07-21T06:14:56.154Z,310
2017-07-21T06:16:06.436Z,315
2017-07-21T06:17:16.723Z,315
2017-07-21T06:18:27.007Z,315
2017-07-21T06:19:37.560Z,320
2017-07-21T06:20:47.529Z,320
2017-07-21T06:21:57.499Z,320
2017-07-21T06:23:07.780Z,325
2017-07-21T06:24:18.067Z,325
2017-07-21T06:25:28.628Z,325
2017-07-21T06:26:38.901Z,325
2017-07-21T06:27:47.948Z,330
2017-07-21T06:28:58.228Z,330
2017-07-21T06:30:08.210Z,335
2017-07-21T06:31:18.737Z,335
2017-07-21T06:32:29.034Z,340
2017-07-21T06:33:39.334Z,345
2017-07-21T06:34:49.625Z,340
2017-07-21T06:35:59.910Z,345
2017-07-21T06:37:10.129Z,345
2017-07-21T06:38:20.122Z,345
2017-07-21T06:39:30.398Z,345
2017-07-21T06:40:40.680Z,355
2017-07-21T06:41:50.950Z,355
2017-07-21T06:43:00.865Z,355
2017-07-21T06:44:11.147Z,355
2017-07-21T06:45:21.127Z,360
2017-07-21T06:46:31.109Z,360
2017-07-21T06:47:41.391Z,365
2017-07-21T06:48:51.924Z,365
2017-07-21T06:50:01.587Z,365
2017-07-21T06:51:11.579Z,370
2017-07-21T06:52:21.894Z,370
2017-07-21T06:53:31.868Z,375
2017-07-21T06:54:42.087Z,375
2017-07-21T06:55:52.428Z,380
2017-07-21T06:57:02.739Z,380
2017-07-21T06:58:13.040Z,385
2017-07-21T06:59:23.333Z,385
2017-07-21T07:00:33.619Z,390
2017-07-21T07:01:43.597Z,390
2017-07-21T07:02:53.891Z,390
2017-07-21T07:04:03.865Z,395
2017-07-21T07:05:13.841Z,395
2017-07-21T07:06:24.400Z,395
2017-07-21T07:07:34.666Z,400
2017-07-21T07:08:44.939Z,400
2017-07-21T07:09:55.216Z,400
2017-07-21T07:11:05.527Z,405
2017-07-21T07:12:15.754Z,405
2017-07-21T07:13:26.059Z,410
2017-07-21T07:14:36.335Z,410
2017-07-21T07:15:46.613Z,415
2017-07-21T07:16:56.905Z,415
2017-07-21T07:18:07.141Z,420
2017-07-21T07:19:17.440Z,420
2017-07-21T07:20:27.122Z,425
2017-07-21T07:21:37.416Z,425
2017-07-21T07:22:47.714Z,430
2017-07-21T07:23:58.273Z,430
2017-07-21T07:25:08.556Z,435
2017-07-21T07:26:18.888Z,435
2017-07-21T07:27:29.156Z,440
2017-07-21T07:28:39.429Z,440
2017-07-21T07:29:49.973Z,445
2017-07-21T07:31:00.270Z,445
2017-07-21T07:32:10.291Z,450
2017-07-21T07:33:20.574Z,455
2017-07-21T07:34:30.537Z,455
2017-07-21T07:35:40.764Z,460
2017-07-21T07:36:50.751Z,465
2017-07-21T07:38:00.423Z,460
2017-07-21T07:39:10.707Z,465
2017-07-21T07:40:20.673Z,470
2017-07-21T07:41:31.227Z,470
2017-07-21T07:42:41.523Z,475
2017-07-21T07:43:51.827Z,480
2017-07-21T07:45:02.129Z,485
2017-07-21T07:46:12.117Z,445
2017-07-21T07:47:22.683Z,810
2017-07-21T07:48:32.960Z,275
2017-07-21T07:49:42.630Z,415
2017-07-21T07:50:51.984Z,505
2017-07-21T07:52:02.266Z,520
2017-07-21T07:53:12.508Z,520
2017-07-21T07:54:22.802Z,525
2017-07-21T07:55:32.774Z,530
2017-07-21T07:56:42.767Z,530
2017-07-21T07:57:53.040Z,540
2017-07-21T07:59:03.270Z,535
2017-07-21T08:00:13.254Z,535
2017-07-21T08:01:23.271Z,540
2017-07-21T08:02:33.255Z,550
2017-07-21T08:03:43.249Z,555
2017-07-21T08:04:53.792Z,560
2017-07-21T08:06:04.081Z,565
2017-07-21T08:07:14.356Z,585
2017-07-21T08:08:24.641Z,615
2017-07-21T08:09:34.912Z,630
2017-07-21T08:10:45.431Z,660
2017-07-21T08:11:55.716Z,700
2017-07-21T08:13:06.002Z,720
2017-07-21T08:14:16.295Z,715
2017-07-21T08:15:26.297Z,695
2017-07-21T08:16:36.857Z,660
2017-07-21T08:17:46.833Z,655
2017-07-21T08:18:57.156Z,690
2017-07-21T08:20:06.854Z,700
2017-07-21T08:21:16.552Z,670
2017-07-21T08:22:27.096Z,680
2017-07-21T08:23:37.070Z,720
2017-07-21T08:24:47.361Z,730
2017-07-21T08:25:56.718Z,730
2017-07-21T08:27:07.003Z,690
2017-07-21T08:28:17.534Z,735
2017-07-21T08:29:27.818Z,810
2017-07-21T08:30:38.128Z,815
2017-07-21T08:31:48.439Z,765
2017-07-21T08:32:58.723Z,775
2017-07-21T08:34:09.268Z,760
2017-07-21T08:35:19.553Z,730
2017-07-21T08:36:29.568Z,735
2017-07-21T08:37:39.901Z,885
2017-07-21T08:38:50.212Z,1275
2017-07-21T08:40:00.436Z,1335
2017-07-21T08:41:10.720Z,1165
2017-07-21T08:42:21.038Z,1345
2017-07-21T08:43:31.352Z,1240
2017-07-21T08:44:41.638Z,1365
2017-07-21T08:45:52.185Z,1345
2017-07-21T08:47:02.484Z,1415
2017-07-21T08:48:12.843Z,1470
2017-07-21T08:49:22.823Z,710
2017-07-21T08:50:33.128Z,1245
2017-07-21T08:51:43.352Z,1240
2017-07-21T08:52:53.636Z,1330
2017-07-21T08:54:03.629Z,1420
2017-07-21T08:55:13.931Z,1445
2017-07-21T08:56:24.231Z,1305
2017-07-21T08:57:34.152Z,1430
2017-07-21T08:58:44.454Z,1470
2017-07-21T08:59:54.458Z,1475
2017-07-21T09:01:04.792Z,1455
2017-07-21T09:02:15.101Z,1505
2017-07-21T09:03:25.580Z,1490
2017-07-21T09:04:35.556Z,1510
2017-07-21T09:05:45.561Z,1515
2017-07-21T09:06:55.232Z,1360
2017-07-21T09:08:05.533Z,1545
2017-07-21T09:09:16.190Z,1555
2017-07-21T09:10:26.198Z,1565
2017-07-21T09:11:35.859Z,1605
2017-07-21T09:12:45.843Z,1600
2017-07-21T09:13:55.837Z,1635
2017-07-21T09:15:06.432Z,1620
2017-07-21T09:16:16.116Z,1620
2017-07-21T09:17:25.790Z,1560
2017-07-21T09:18:36.096Z,1580
2017-07-21T09:19:46.384Z,1645
2017-07-21T09:20:56.919Z,1690
2017-07-21T09:22:07.208Z,1880
2017-07-21T09:23:17.505Z,1780
2017-07-21T09:24:27.172Z,1825
2017-07-21T09:25:37.143Z,1510
2017-07-21T09:26:47.704Z,1760
2017-07-21T09:27:57.682Z,1820
2017-07-21T09:29:08.028Z,1780
2017-07-21T09:30:17.999Z,1845
2017-07-21T09:31:28.006Z,1795
2017-07-21T09:32:38.238Z,1790
2017-07-21T09:33:48.527Z,1735
2017-07-21T09:34:58.824Z,1825
2017-07-21T09:36:09.132Z,1915
2017-07-21T09:37:19.404Z,1870
2017-07-21T09:38:29.341Z,930
2017-07-21T09:39:39.634Z,1805
2017-07-21T09:40:49.922Z,1850
2017-07-21T09:42:00.227Z,1595
2017-07-21T09:43:10.516Z,1785
2017-07-21T09:44:21.068Z,1445
2017-07-21T09:45:31.051Z,1120
2017-07-21T09:46:41.353Z,1600
2017-07-21T09:47:51.646Z,2145
2017-07-21T09:49:01.943Z,2110
2017-07-21T09:50:12.491Z,2100
2017-07-21T09:51:22.810Z,2135
2017-07-21T09:52:33.117Z,2145
2017-07-21T09:53:43.412Z,2105
2017-07-21T09:54:53.392Z,2075
2017-07-21T09:56:03.948Z,2075
2017-07-21T09:57:14.244Z,2165
2017-07-21T09:58:24.532Z,2325
2017-07-21T09:59:34.200Z,2245
2017-07-21T10:00:44.485Z,2110
2017-07-21T10:01:55.051Z,2060
2017-07-21T10:03:05.374Z,2140
2017-07-21T10:04:15.672Z,2200
2017-07-21T10:05:25.670Z,2165
2017-07-21T10:06:35.671Z,2135
2017-07-21T10:07:46.209Z,2195
2017-07-21T10:08:56.193Z,2135
2017-07-21T10:10:05.876Z,2050
2017-07-21T10:11:16.170Z,2060
2017-07-21T10:12:26.482Z,2170
2017-07-21T10:13:37.278Z,2275
2017-07-21T10:14:47.280Z,2315
2017-07-21T10:15:57.578Z,2355
2017-07-21T10:17:07.892Z,2415
2017-07-21T10:18:17.880Z,2325
2017-07-21T10:19:28.433Z,2375
2017-07-21T10:20:38.731Z,1410
2017-07-21T10:21:48.737Z,1880
2017-07-21T10:22:59.017Z,1160
2017-07-21T10:24:09.319Z,2430
2017-07-21T10:25:19.556Z,1600
2017-07-21T10:26:29.846Z,1170
2017-07-21T10:27:40.153Z,1085
2017-07-21T10:28:50.452Z,2575
2017-07-21T10:30:00.747Z,1775
2017-07-21T10:31:11.028Z,1990
2017-07-21T10:32:21.344Z,2595
2017-07-21T10:33:31.639Z,2435
2017-07-21T10:34:41.933Z,2505
2017-07-21T10:35:52.215Z,2550
2017-07-21T10:37:02.443Z,2455
2017-07-21T10:38:12.739Z,2610
2017-07-21T10:39:23.047Z,2515
2017-07-21T10:40:33.346Z,2500
2017-07-21T10:41:43.707Z,2565
2017-07-21T10:42:53.924Z,2515
2017-07-21T10:44:04.229Z,2530
2017-07-21T10:45:14.547Z,2590
2017-07-21T10:46:24.522Z,2605
2017-07-21T10:47:34.515Z,2655
2017-07-21T10:48:44.447Z,2730
2017-07-21T10:49:54.136Z,2720
2017-07-21T10:51:04.446Z,2735
2017-07-21T10:52:14.450Z,2710
2017-07-21T10:53:24.742Z,2395
2017-07-21T10:54:35.308Z,2230
2017-07-21T10:55:45.618Z,2495
2017-07-21T10:56:55.913Z,1510
2017-07-21T10:58:06.205Z,2635
2017-07-21T10:59:16.205Z,2435
2017-07-21T11:00:26.764Z,2135
2017-07-21T11:01:36.757Z,2850
2017-07-21T11:02:46.738Z,2255
2017-07-21T11:03:57.035Z,2405
2017-07-21T11:05:06.411Z,3205
2017-07-21T11:06:16.982Z,2050
2017-07-21T11:07:26.652Z,2765
2017-07-21T11:08:36.957Z,2925
2017-07-21T11:09:46.958Z,2830
2017-07-21T11:10:56.955Z,2695
2017-07-21T11:12:07.504Z,2915
2017-07-21T11:13:17.717Z,2980
2017-07-21T11:14:27.719Z,2930
2017-07-21T11:15:37.715Z,3010
2017-07-21T11:16:47.731Z,2650
2017-07-21T11:17:57.983Z,3030
2017-07-21T11:19:08.270Z,2340
2017-07-21T11:20:18.563Z,2390
2017-07-21T11:21:28.860Z,2245
2017-07-21T11:22:39.148Z,2230
2017-07-21T11:23:49.385Z,1795
2017-07-21T11:24:59.676Z,1915
2017-07-21T11:26:09.972Z,1645
2017-07-21T11:27:20.265Z,1825
2017-07-21T11:28:30.244Z,1900
2017-07-21T11:29:40.485Z,1600
2017-07-21T11:30:50.781Z,1855
2017-07-21T11:32:01.087Z,1945
2017-07-21T11:33:10.772Z,1890
2017-07-21T11:34:20.774Z,2230
2017-07-21T11:35:31.326Z,2030
2017-07-21T11:36:40.987Z,2365
2017-07-21T11:37:50.970Z,2060
2017-07-21T11:39:00.650Z,2005
2017-07-21T11:40:10.635Z,2010
2017-07-21T11:41:20.873Z,1940
2017-07-21T11:42:31.163Z,2035
2017-07-21T11:43:41.463Z,2280
2017-07-21T11:44:51.773Z,1990
2017-07-21T11:46:01.743Z,2055
2017-07-21T11:47:12.304Z,2360
2017-07-21T11:48:21.975Z,2690
2017-07-21T11:49:31.960Z,3385
2017-07-21T11:50:42.261Z,3325
2017-07-21T11:51:51.922Z,3150
2017-07-21T11:53:01.846Z,3280
2017-07-21T11:54:12.143Z,3350
2017-07-21T11:55:22.125Z,2425
2017-07-21T11:56:32.456Z,1960
2017-07-21T11:57:42.756Z,1955
2017-07-21T11:58:53.347Z,2250
2017-07-21T12:00:03.630Z,1725
2017-07-21T12:01:13.604Z,1985
2017-07-21T12:02:23.598Z,2945
2017-07-21T12:03:33.890Z,1905
2017-07-21T12:04:44.437Z,1990
2017-07-21T12:05:54.722Z,1690
2017-07-21T12:07:05.060Z,1625
2017-07-21T12:08:15.074Z,1630
2017-07-21T12:09:25.371Z,1735
2017-07-21T12:10:35.917Z,2555
2017-07-21T12:11:46.215Z,2250
2017-07-21T12:12:56.223Z,3535
2017-07-21T12:14:05.900Z,2490
2017-07-21T12:15:15.884Z,3350
2017-07-21T12:16:26.437Z,2845
2017-07-21T12:17:36.746Z,3250
2017-07-21T12:18:47.059Z,3185
2017-07-21T12:19:57.060Z,2240
2017-07-21T12:21:07.376Z,3310
2017-07-21T12:22:17.985Z,2960
2017-07-21T12:23:27.679Z,1645
2017-07-21T12:24:37.989Z,3300
2017-07-21T12:25:47.959Z,3230
2017-07-21T12:26:58.247Z,3090
2017-07-21T12:28:08.820Z,3280
2017-07-21T12:29:19.128Z,3240
2017-07-21T12:30:29.425Z,3175
2017-07-21T12:31:39.731Z,3060
2017-07-21T12:32:49.719Z,2550
2017-07-21T12:33:59.963Z,3260
2017-07-21T12:35:10.281Z,3270
2017-07-21T12:36:20.586Z,3140
2017-07-21T12:37:30.905Z,3030
2017-07-21T12:38:40.889Z,3090
2017-07-21T12:39:50.814Z,3245
2017-07-21T12:41:01.116Z,3235
2017-07-21T12:42:11.436Z,3300
2017-07-21T12:43:21.426Z,3445
2017-07-21T12:44:31.737Z,2005
2017-07-21T12:45:42.332Z,3475
2017-07-21T12:46:52.318Z,3425
2017-07-21T12:48:02.623Z,3270
2017-07-21T12:49:12.911Z,3195
2017-07-21T12:50:22.589Z,1135
2017-07-21T12:51:32.829Z,1210
2017-07-21T12:52:43.127Z,1270
2017-07-21T12:53:53.116Z,1585
2017-07-21T12:55:03.426Z,3165
2017-07-21T12:56:13.409Z,3315
2017-07-21T12:57:23.959Z,3310
2017-07-21T12:58:33.969Z,1130
2017-07-21T12:59:44.357Z,3395
2017-07-21T13:00:54.361Z,3340
2017-07-21T13:02:04.661Z,3300
2017-07-21T13:03:14.930Z,3275
2017-07-21T13:04:25.266Z,3285
2017-07-21T13:05:35.566Z,3395
2017-07-21T13:06:45.859Z,3440
2017-07-21T13:07:56.186Z,3390
2017-07-21T13:09:06.759Z,3320
2017-07-21T13:10:16.756Z,3275
2017-07-21T13:11:27.048Z,3230
2017-07-21T13:12:37.400Z,3235
2017-07-21T13:13:47.717Z,3275
2017-07-21T13:14:57.967Z,3340
2017-07-21T13:16:08.281Z,3325
2017-07-21T13:17:18.564Z,3220
2017-07-21T13:18:28.864Z,3335
2017-07-21T13:19:38.848Z,3455
2017-07-21T13:20:49.103Z,3405
2017-07-21T13:21:59.110Z,3310
2017-07-21T13:23:09.411Z,3470
2017-07-21T13:24:19.703Z,3625
2017-07-21T13:25:29.991Z,3720
2017-07-21T13:26:40.557Z,3615
2017-07-21T13:27:50.843Z,3520
2017-07-21T13:29:00.838Z,3355
2017-07-21T13:30:11.117Z,3290
2017-07-21T13:31:21.094Z,3210
2017-07-21T13:32:31.764Z,3200
2017-07-21T13:33:41.744Z,3320
2017-07-21T13:34:52.062Z,3500
2017-07-21T13:36:02.051Z,3535
2017-07-21T13:37:12.379Z,3480
2017-07-21T13:38:22.672Z,3480
2017-07-21T13:39:33.003Z,3545
2017-07-21T13:40:42.986Z,3465
2017-07-21T13:41:53.280Z,3435
2017-07-21T13:43:03.249Z,3425
2017-07-21T13:44:13.477Z,3450
2017-07-21T13:45:23.777Z,3510
2017-07-21T13:46:33.791Z,3475
2017-07-21T13:47:44.103Z,3350
2017-07-21T13:48:54.106Z,3310
2017-07-21T13:50:04.679Z,3270
2017-07-21T13:51:14.349Z,3295
2017-07-21T13:52:24.654Z,3030
2017-07-21T13:53:34.978Z,3415
2017-07-21T13:54:45.272Z,3460
2017-07-21T13:55:55.816Z,3445
2017-07-21T13:57:06.109Z,3350
2017-07-21T13:58:16.401Z,3345
2017-07-21T13:59:26.817Z,3360
2017-07-21T14:00:37.116Z,3350
2017-07-21T14:01:47.744Z,3470
2017-07-21T14:02:58.044Z,3580
2017-07-21T14:04:08.362Z,3495
2017-07-21T14:05:18.682Z,3325
2017-07-21T14:06:28.994Z,2675
2017-07-21T14:07:38.973Z,1200
2017-07-21T14:08:49.284Z,3250
2017-07-21T14:09:59.609Z,3120
2017-07-21T14:11:09.600Z,3100
2017-07-21T14:12:19.931Z,1075
2017-07-21T14:13:30.479Z,1050
2017-07-21T14:14:40.784Z,1010
2017-07-21T14:15:50.785Z,990
2017-07-21T14:17:01.081Z,1000
2017-07-21T14:18:11.390Z,995
2017-07-21T14:19:21.620Z,990
2017-07-21T14:20:31.622Z,2585
2017-07-21T14:21:42.160Z,2250
2017-07-21T14:22:52.452Z,1145
2017-07-21T14:24:02.746Z,1580
2017-07-21T14:25:13.308Z,1280
2017-07-21T14:26:23.309Z,3115
2017-07-21T14:27:33.607Z,3250
2017-07-21T14:28:43.889Z,3305
2017-07-21T14:29:54.186Z,3060
2017-07-21T14:31:04.469Z,3380
2017-07-21T14:32:14.769Z,3420
2017-07-21T14:33:24.449Z,3360
2017-07-21T14:34:34.427Z,3330
2017-07-21T14:35:44.413Z,3280
2017-07-21T14:36:54.980Z,1035
2017-07-21T14:38:04.637Z,1130
2017-07-21T14:39:15.022Z,3145
2017-07-21T14:40:25.329Z,3045
2017-07-21T14:41:35.622Z,3050
2017-07-21T14:42:46.182Z,1080
2017-07-21T14:43:56.473Z,1235
2017-07-21T14:45:06.449Z,1345
2017-07-21T14:46:16.751Z,810
2017-07-21T14:47:26.743Z,855
2017-07-21T14:48:36.980Z,825
2017-07-21T14:49:46.959Z,810
2017-07-21T14:50:57.266Z,825
2017-07-21T14:52:07.557Z,860
2017-07-21T14:53:17.854Z,960
2017-07-21T14:54:28.143Z,980
2017-07-21T14:55:38.431Z,985
2017-07-21T14:56:48.710Z,960
2017-07-21T14:57:59.017Z,945
2017-07-21T14:59:08.994Z,945
2017-07-21T15:00:19.227Z,1000
2017-07-21T15:01:29.532Z,1295
2017-07-21T15:02:39.437Z,2395
2017-07-21T15:03:49.725Z,2890
2017-07-21T15:05:00.013Z,2785
2017-07-21T15:06:10.261Z,2740
2017-07-21T15:07:20.550Z,2765
2017-07-21T15:08:30.842Z,2850
2017-07-21T15:09:41.128Z,1560
2017-07-21T15:10:51.427Z,1030
2017-07-21T15:12:01.987Z,1235
2017-07-21T15:13:11.975Z,1155
2017-07-21T15:14:22.294Z,2060
2017-07-21T15:15:32.282Z,1030
2017-07-21T15:16:42.561Z,975
2017-07-21T15:17:53.114Z,930
2017-07-21T15:19:03.094Z,885
2017-07-21T15:20:13.409Z,895
2017-07-21T15:21:23.417Z,970
2017-07-21T15:22:33.403Z,2015
2017-07-21T15:23:43.638Z,2485
2017-07-21T15:24:53.637Z,2495
2017-07-21T15:26:03.929Z,2570
2017-07-21T15:27:13.909Z,1335
2017-07-21T15:28:23.888Z,1020
2017-07-21T15:29:34.442Z,995
2017-07-21T15:30:44.757Z,1250
2017-07-21T15:31:55.045Z,2000
2017-07-21T15:33:05.344Z,2035
2017-07-21T15:34:15.648Z,1120
2017-07-21T15:35:25.559Z,920
2017-07-21T15:36:35.232Z,895
2017-07-21T15:37:45.512Z,1525
2017-07-21T15:38:55.810Z,1855
2017-07-21T15:40:05.789Z,960
2017-07-21T15:41:16.076Z,2130
2017-07-21T15:42:26.077Z,2250
2017-07-21T15:43:36.369Z,2410
2017-07-21T15:44:46.708Z,2385
2017-07-21T15:45:56.681Z,2420
2017-07-21T15:47:07.226Z,2425
2017-07-21T15:48:17.509Z,2275
2017-07-21T15:49:27.803Z,2185
2017-07-21T15:50:37.785Z,2235
2017-07-21T15:51:47.462Z,2220
2017-07-21T15:52:58.005Z,2205
2017-07-21T15:54:08.317Z,2230
2017-07-21T15:55:18.326Z,2255
2017-07-21T15:56:28.632Z,2245
2017-07-21T15:57:38.309Z,2180
2017-07-21T15:58:48.881Z,2245
2017-07-21T15:59:59.178Z,2210
2017-07-21T16:01:09.466Z,2145
2017-07-21T16:02:19.767Z,2040
2017-07-21T16:03:30.062Z,1965
2017-07-21T16:04:40.626Z,1445
2017-07-21T16:05:50.919Z,1710
2017-07-21T16:07:01.218Z,2065